Time;durP1;ratioP1;P1;durP2;ratioP2;P2;SDS_P1;SDS_P2;PMS_P1;PMS_P2;Temp;Humidity;BMP_temperature;BMP_pressure;BME280_temperature;BME280_humidity;BME280_pressure;Samples;Min_cycle;Max_cycle;Signal;HPM_P1;HPM_P2
2021/06/13 00:03:23;;;;;;;4.47;4.17;;;22.50;29.10;;;;;;10387198;28;20241;-74
2021/06/13 00:08:28;;;;;;;5.07;4.67;;;22.40;29.20;;;;;;10389555;28;20226;-74
2021/06/13 00:13:30;;;;;;;5.50;5.10;;;22.40;29.40;;;;;;10392308;28;20227;-74
2021/06/13 00:18:34;;;;;;;5.30;4.90;;;22.30;29.20;;;;;;10389322;28;20246;-74
2021/06/13 00:23:40;;;;;;;4.97;4.57;;;22.30;29.40;;;;;;10385707;28;20314;-74
2021/06/13 00:28:53;;;;;;;5.20;4.80;;;22.30;29.60;;;;;;10387703;28;20237;-74
2021/06/13 00:33:56;;;;;;;5.00;4.60;;;22.30;29.30;;;;;;10386341;28;20245;-74
2021/06/13 00:39:00;;;;;;;6.33;5.17;;;22.30;29.40;;;;;;10385860;28;20245;-74
2021/06/13 00:44:02;;;;;;;5.23;4.83;;;22.30;29.80;;;;;;10384111;28;20237;-75
2021/06/13 00:49:05;;;;;;;5.33;4.83;;;22.20;29.60;;;;;;10382061;28;20234;-74
2021/06/13 00:54:09;;;;;;;4.60;4.30;;;22.10;29.60;;;;;;10382349;28;20222;-74
2021/06/13 00:59:12;;;;;;;4.90;4.50;;;22.00;29.90;;;;;;10383092;28;20234;-74
2021/06/13 01:04:15;;;;;;;4.83;4.53;;;22.00;29.70;;;;;;10385146;28;20241;-74
2021/06/13 01:09:25;;;;;;;5.33;4.93;;;22.00;29.80;;;;;;10380978;28;20711;-74
2021/06/13 01:14:36;;;;;;;5.33;4.93;;;21.90;30.60;;;;;;10385343;28;20241;-74
2021/06/13 01:19:50;;;;;;;6.47;5.83;;;21.80;30.40;;;;;;10383722;28;20235;-74
2021/06/13 01:25:05;;;;;;;5.27;4.87;;;21.70;31.50;;;;;;10384091;28;20241;-74
2021/06/13 01:30:10;;;;;;;5.90;5.40;;;21.60;31.20;;;;;;10381972;28;20684;-76
2021/06/13 01:35:19;;;;;;;5.60;5.10;;;21.40;30.90;;;;;;10386247;28;20236;-74
2021/06/13 01:40:27;;;;;;;6.17;5.50;;;21.30;31.10;;;;;;10380172;28;20240;-76
2021/06/13 01:45:34;;;;;;;6.67;5.70;;;21.20;31.30;;;;;;10385576;28;20292;-74
2021/06/13 01:50:38;;;;;;;6.27;5.63;;;21.10;31.40;;;;;;10383020;28;20225;-76
2021/06/13 01:55:45;;;;;;;6.37;5.77;;;21.00;31.30;;;;;;10383268;28;20301;-76
2021/06/13 02:00:51;;;;;;;6.40;5.90;;;20.90;31.50;;;;;;10380350;28;20238;-76
2021/06/13 02:05:55;;;;;;;6.10;5.60;;;20.80;32.10;;;;;;10383622;28;20728;-74
2021/06/13 02:10:58;;;;;;;5.80;5.27;;;20.70;31.50;;;;;;10380723;28;20248;-76
2021/06/13 02:16:03;;;;;;;6.50;5.90;;;20.60;31.50;;;;;;10385992;28;20230;-74
2021/06/13 02:21:08;;;;;;;6.20;5.60;;;20.60;32.20;;;;;;10382570;28;20312;-76
2021/06/13 02:26:13;;;;;;;5.73;5.33;;;20.60;32.20;;;;;;10384942;28;20226;-74
2021/06/13 02:31:18;;;;;;;5.73;5.20;;;20.60;32.70;;;;;;10384945;28;20233;-76
2021/06/13 02:36:23;;;;;;;5.97;5.50;;;20.50;32.30;;;;;;10385846;28;20245;-74
2021/06/13 02:41:26;;;;;;;5.93;5.43;;;20.50;32.30;;;;;;10380164;28;20234;-75
2021/06/13 02:46:30;;;;;;;6.27;5.77;;;20.50;31.90;;;;;;10373861;28;20230;-76
2021/06/13 02:51:34;;;;;;;6.97;6.37;;;20.50;32.50;;;;;;10383915;28;20244;-74
2021/06/13 02:56:43;;;;;;;7.10;6.40;;;20.50;32.50;;;;;;10385882;28;20237;-74
2021/06/13 03:01:49;;;;;;;7.33;6.40;;;20.40;33.40;;;;;;10376973;28;20265;-76
2021/06/13 03:06:54;;;;;;;6.23;5.73;;;20.20;33.30;;;;;;10376213;28;20233;-74
2021/06/13 03:11:58;;;;;;;6.73;6.20;;;20.10;33.00;;;;;;10384395;28;20222;-74
2021/06/13 03:17:03;;;;;;;7.10;6.50;;;20.00;32.60;;;;;;10383573;28;20237;-76
2021/06/13 03:22:07;;;;;;;6.37;5.83;;;20.00;33.50;;;;;;10383933;28;20641;-74
2021/06/13 03:27:10;;;;;;;6.97;6.37;;;19.90;33.00;;;;;;10384242;28;20229;-76
2021/06/13 03:32:15;;;;;;;7.13;6.43;;;19.80;33.00;;;;;;10380079;28;20593;-76
2021/06/13 03:37:20;;;;;;;6.50;6.00;;;19.80;33.50;;;;;;10378238;28;20233;-76
2021/06/13 03:42:24;;;;;;;6.27;5.83;;;19.70;34.00;;;;;;10385581;28;20238;-76
2021/06/13 03:47:32;;;;;;;6.60;6.00;;;19.70;33.60;;;;;;10383431;28;20580;-74
2021/06/13 03:52:35;;;;;;;6.53;6.03;;;19.50;34.60;;;;;;10384982;28;20593;-74
2021/06/13 03:57:40;;;;;;;6.43;5.80;;;19.50;33.70;;;;;;10384256;28;21083;-76
2021/06/13 04:02:48;;;;;;;5.70;5.20;;;19.40;33.70;;;;;;10387788;28;20604;-76
2021/06/13 04:07:51;;;;;;;7.50;5.03;;;19.40;34.10;;;;;;10389924;28;20233;-76
2021/06/13 04:12:55;;;;;;;5.70;5.20;;;19.40;33.60;;;;;;10389150;28;20233;-76
2021/06/13 04:18:00;;;;;;;4.90;4.33;;;19.30;33.60;;;;;;10383506;28;20301;-75
2021/06/13 04:23:05;;;;;;;7.40;5.03;;;19.30;33.70;;;;;;10386505;28;20230;-76
2021/06/13 04:28:12;;;;;;;4.67;4.27;;;19.30;33.60;;;;;;10384151;28;20229;-76
2021/06/13 04:33:17;;;;;;;5.43;4.43;;;19.30;34.20;;;;;;10384726;28;20234;-76
2021/06/13 04:38:20;;;;;;;5.23;4.60;;;19.30;33.70;;;;;;10386130;28;20234;-76
2021/06/13 04:43:23;;;;;;;4.90;4.43;;;19.30;33.50;;;;;;10389989;28;20234;-76
2021/06/13 04:48:28;;;;;;;5.47;4.43;;;19.30;33.70;;;;;;10380978;28;20601;-76
2021/06/13 04:54:19;;;;;;;5.53;4.90;;;19.30;34.40;;;;;;10383988;28;20237;-75
2021/06/13 04:59:22;;;;;;;5.60;5.10;;;19.20;35.80;;;;;;10379769;28;20242;-76
2021/06/13 05:04:27;;;;;;;5.27;4.77;;;19.20;34.40;;;;;;10385509;28;20729;-75
2021/06/13 05:09:30;;;;;;;4.90;4.50;;;19.20;35.00;;;;;;10387527;28;20253;-75
2021/06/13 05:14:33;;;;;;;7.33;4.27;;;19.20;34.60;;;;;;10382017;28;20226;-75
2021/06/13 05:19:38;;;;;;;6.67;4.53;;;19.20;34.50;;;;;;10383118;28;20231;-75
2021/06/13 05:24:41;;;;;;;4.63;4.23;;;19.30;35.00;;;;;;10386197;28;20246;-75
2021/06/13 05:29:44;;;;;;;4.80;4.10;;;19.30;34.50;;;;;;10383679;28;20225;-75
2021/06/13 05:34:49;;;;;;;4.27;3.87;;;19.40;34.70;;;;;;10386050;28;20230;-75
2021/06/13 05:39:52;;;;;;;4.50;3.00;;;19.40;34.80;;;;;;10384619;28;20788;-75
2021/06/13 05:44:55;;;;;;;3.37;2.50;;;19.60;34.00;;;;;;10380913;28;20234;-75
2021/06/13 05:50:00;;;;;;;3.83;2.73;;;19.60;33.50;;;;;;10378971;28;20686;-75
2021/06/13 05:55:04;;;;;;;2.80;2.07;;;19.70;33.40;;;;;;10384373;28;20234;-76
2021/06/13 06:00:11;;;;;;;2.70;2.30;;;19.80;33.00;;;;;;10384340;28;20240;-75
2021/06/13 06:05:18;;;;;;;2.30;2.00;;;19.90;32.10;;;;;;10382762;28;20729;-79
2021/06/13 06:10:23;;;;;;;3.43;2.20;;;19.90;31.50;;;;;;10391043;28;21077;-79
2021/06/13 06:15:28;;;;;;;4.60;2.10;;;19.90;31.70;;;;;;10392423;28;20232;-79
2021/06/13 06:20:32;;;;;;;3.23;1.90;;;19.90;31.80;;;;;;10397949;28;20607;-79
2021/06/13 06:25:36;;;;;;;3.73;2.03;;;19.90;31.90;;;;;;10394218;28;20595;-78
2021/06/13 06:30:39;;;;;;;5.17;2.03;;;20.10;32.00;;;;;;10393209;28;20228;-78
2021/06/13 06:35:43;;;;;;;4.00;2.00;;;20.20;31.90;;;;;;10390825;28;20260;-79
2021/06/13 06:40:46;;;;;;;4.30;1.90;;;20.30;31.60;;;;;;10391527;28;20233;-78
2021/06/13 06:45:50;;;;;;;2.47;1.83;;;20.40;31.10;;;;;;10390478;28;20225;-79
2021/06/13 06:50:54;;;;;;;3.57;1.90;;;20.50;31.20;;;;;;10397224;28;20313;-80
2021/06/13 06:55:57;;;;;;;2.00;1.80;;;20.40;30.80;;;;;;10401685;28;20253;-79
2021/06/13 07:01:01;;;;;;;2.80;2.10;;;20.50;31.00;;;;;;10397002;28;20229;-79
2021/06/13 07:06:05;;;;;;;3.00;2.20;;;20.50;31.10;;;;;;10384647;28;20678;-76
2021/06/13 07:11:09;;;;;;;3.07;2.10;;;20.50;30.80;;;;;;10395777;28;20235;-78
2021/06/13 07:16:13;;;;;;;2.20;2.00;;;20.60;31.10;;;;;;10391954;28;20229;-76
2021/06/13 07:21:17;;;;;;;2.37;1.70;;;20.80;31.30;;;;;;10395759;28;20245;-76
2021/06/13 07:26:20;;;;;;;2.07;1.90;;;20.90;31.00;;;;;;10413208;28;20238;-79
2021/06/13 07:31:24;;;;;;;3.53;2.30;;;21.10;31.20;;;;;;10404454;28;20622;-78
2021/06/13 07:36:28;;;;;;;2.40;2.00;;;21.20;30.50;;;;;;10397007;28;20618;-79
2021/06/13 07:41:31;;;;;;;3.63;2.30;;;21.30;30.20;;;;;;10396307;28;20648;-79
2021/06/13 07:46:35;;;;;;;5.17;2.47;;;21.40;30.40;;;;;;10386003;28;20257;-76
2021/06/13 07:51:40;;;;;;;4.77;2.30;;;21.50;30.40;;;;;;10382313;28;20237;-76
2021/06/13 07:56:43;;;;;;;2.23;2.03;;;21.60;30.10;;;;;;10387240;28;20226;-76
2021/06/13 08:01:46;;;;;;;3.30;2.40;;;21.70;30.20;;;;;;10392941;28;20307;-76
2021/06/13 08:06:51;;;;;;;3.63;2.50;;;21.60;30.00;;;;;;10385569;28;20802;-76
2021/06/13 08:11:54;;;;;;;3.40;2.33;;;21.60;29.70;;;;;;10387116;28;20609;-76
2021/06/13 08:16:57;;;;;;;3.27;2.33;;;21.60;30.00;;;;;;10391395;28;20266;-76
2021/06/13 08:22:02;;;;;;;2.57;2.00;;;21.70;30.30;;;;;;10382154;28;20288;-76
2021/06/13 08:27:06;;;;;;;3.33;2.83;;;21.80;30.00;;;;;;10406056;28;20229;-79
2021/06/13 08:32:11;;;;;;;5.60;2.33;;;21.90;29.90;;;;;;10398917;28;20268;-79
2021/06/13 08:37:15;;;;;;;2.80;2.43;;;22.10;30.30;;;;;;10396993;28;20233;-79
2021/06/13 08:42:19;;;;;;;4.77;2.47;;;22.30;29.70;;;;;;10388389;28;20237;-76
2021/06/13 08:47:22;;;;;;;3.30;2.50;;;22.40;29.30;;;;;;10384982;28;20664;-79
2021/06/13 08:52:27;;;;;;;3.20;2.20;;;22.50;29.50;;;;;;10393251;28;20233;-80
2021/06/13 08:57:30;;;;;;;2.60;2.40;;;22.60;29.70;;;;;;10393912;28;20230;-78
2021/06/13 09:02:33;;;;;;;4.97;2.90;;;22.80;29.20;;;;;;10395071;28;20253;-78
2021/06/13 09:07:47;;;;;;;5.03;2.57;;;22.90;29.50;;;;;;10389480;28;20276;-78
2021/06/13 09:12:52;;;;;;;3.67;2.30;;;23.10;27.40;;;;;;10391272;28;20236;-79
2021/06/13 09:17:55;;;;;;;3.63;2.20;;;23.10;28.10;;;;;;10392111;28;20721;-76
2021/06/13 09:23:12;;;;;;;2.73;2.23;;;23.20;28.30;;;;;;10385719;28;20233;-76
2021/06/13 09:28:18;;;;;;;3.97;2.13;;;23.40;27.60;;;;;;10396418;28;20588;-80
2021/06/13 09:33:24;;;;;;;2.50;2.03;;;23.50;27.70;;;;;;10382018;28;20316;-75
2021/06/13 09:38:29;;;;;;;3.70;2.03;;;23.50;27.10;;;;;;10386125;28;20234;-74
2021/06/13 09:43:37;;;;;;;3.23;1.80;;;23.50;27.40;;;;;;10380831;28;20250;-76
2021/06/13 09:48:42;;;;;;;2.50;1.60;;;23.60;26.30;;;;;;10380020;28;20308;-74
2021/06/13 09:53:49;;;;;;;2.37;1.60;;;23.70;26.00;;;;;;10383071;28;20240;-76
2021/06/13 09:58:55;;;;;;;1.90;1.40;;;23.80;25.10;;;;;;10392448;28;20229;-80
2021/06/13 10:03:59;;;;;;;2.90;1.67;;;23.90;26.20;;;;;;10400049;28;20233;-82
2021/06/13 10:09:06;;;;;;;2.40;1.40;;;23.90;25.50;;;;;;10399493;28;20250;-82
2021/06/13 10:14:09;;;;;;;1.83;1.43;;;24.10;24.40;;;;;;10393356;28;20252;-83
2021/06/13 10:19:15;;;;;;;3.07;2.00;;;24.10;25.70;;;;;;10394490;28;20237;-77
2021/06/13 10:24:22;;;;;;;2.53;1.83;;;24.10;25.40;;;;;;10393648;28;20234;-79
2021/06/13 10:29:28;;;;;;;2.33;1.60;;;24.30;24.90;;;;;;10403695;28;20233;-79
2021/06/13 10:34:33;;;;;;;1.70;1.47;;;24.40;25.10;;;;;;10405482;28;20619;-79
2021/06/13 10:39:39;;;;;;;2.33;1.80;;;24.60;25.30;;;;;;10395396;28;20246;-79
2021/06/13 10:44:47;;;;;;;3.43;1.67;;;24.70;25.00;;;;;;10405854;28;20611;-76
2021/06/13 10:50:00;;;;;;;1.70;1.60;;;24.80;24.70;;;;;;10381876;28;20686;-80
2021/06/13 10:55:06;;;;;;;2.13;1.50;;;24.90;25.50;;;;;;10398964;28;20291;-79
2021/06/13 11:00:31;;;;;;;3.67;1.60;;;25.10;24.70;;;;;;10391543;28;20308;-78
2021/06/13 11:05:40;;;;;;;2.47;1.80;;;25.10;23.90;;;;;;10376821;28;20240;-78
2021/06/13 11:10:46;;;;;;;4.90;1.80;;;25.10;23.20;;;;;;10395395;28;20603;-79
2021/06/13 11:15:52;;;;;;;2.20;1.83;;;25.20;24.00;;;;;;10384587;28;20767;-77
2021/06/13 11:21:07;;;;;;;1.70;1.60;;;25.20;24.00;;;;;;10391424;28;20233;-77
2021/06/13 11:26:32;;;;;;;2.80;2.60;;;25.20;24.10;;;;;;10396479;28;20225;-79
2021/06/13 11:31:44;;;;;;;5.33;1.77;;;25.30;22.90;;;;;;10390598;28;20313;-77
2021/06/13 11:36:50;;;;;;;2.07;1.63;;;25.30;24.20;;;;;;10397389;28;20280;-76
2021/06/13 11:42:09;;;;;;;3.13;1.50;;;25.40;23.90;;;;;;10388923;28;20230;-78
2021/06/13 11:47:36;;;;;;;1.80;1.60;;;25.40;21.70;;;;;;10395740;28;20694;-77
2021/06/13 11:53:05;;;;;;;1.53;1.43;;;25.50;22.80;;;;;;10380451;28;20234;-79
2021/06/13 11:58:14;;;;;;;5.33;1.70;;;25.50;22.90;;;;;;10384009;28;20226;-76
2021/06/13 12:03:17;;;;;;;1.70;1.60;;;25.60;22.90;;;;;;10385265;28;20237;-76
2021/06/13 12:08:20;;;;;;;2.03;1.53;;;25.70;23.20;;;;;;10387430;28;20722;-76
2021/06/13 12:13:29;;;;;;;1.60;1.40;;;25.80;22.60;;;;;;10386854;28;20241;-78
2021/06/13 12:18:32;;;;;;;1.57;1.47;;;25.90;21.30;;;;;;10387886;28;20241;-78
2021/06/13 12:23:40;;;;;;;1.53;1.43;;;26.00;22.30;;;;;;10404223;28;20631;-78
2021/06/13 12:28:44;;;;;;;3.27;1.40;;;26.00;22.50;;;;;;10388752;28;20321;-79
2021/06/13 12:33:48;;;;;;;2.10;1.57;;;25.90;22.30;;;;;;10386597;28;20238;-78
2021/06/13 12:38:53;;;;;;;2.13;1.50;;;25.90;21.80;;;;;;10398860;28;20724;-78
2021/06/13 12:43:57;;;;;;;1.60;1.50;;;25.90;21.50;;;;;;10398766;28;20234;-76
2021/06/13 12:49:01;;;;;;;2.07;1.37;;;25.90;20.90;;;;;;10389328;28;20229;-78
2021/06/13 12:54:14;;;;;;;2.27;1.50;;;26.00;21.40;;;;;;10387036;28;20241;-78
2021/06/13 12:59:19;;;;;;;1.53;1.43;;;26.00;19.00;;;;;;10388214;28;20234;-78
2021/06/13 13:04:47;;;;;;;1.30;1.20;;;26.00;19.40;;;;;;10393995;28;21354;-78
2021/06/13 13:10:13;;;;;;;1.30;1.20;;;26.00;17.70;;;;;;10386186;28;20234;-77
2021/06/13 13:15:23;;;;;;;1.97;1.10;;;25.90;17.30;;;;;;10382453;28;20238;-74
2021/06/13 13:20:31;;;;;;;1.60;1.30;;;25.90;16.90;;;;;;10390544;28;20238;-74
2021/06/13 13:25:36;;;;;;;1.77;1.20;;;25.90;17.80;;;;;;10384600;28;20237;-78
2021/06/13 13:30:40;;;;;;;1.07;1.07;;;25.90;18.00;;;;;;10389129;28;20318;-79
2021/06/13 13:35:45;;;;;;;2.77;1.50;;;25.90;17.10;;;;;;10394808;28;20316;-73
2021/06/13 13:41:00;;;;;;;1.57;1.30;;;25.90;18.30;;;;;;10390020;28;20257;-78
2021/06/13 13:46:06;;;;;;;1.43;1.30;;;25.90;16.70;;;;;;10390837;28;20232;-78
2021/06/13 13:51:09;;;;;;;1.60;1.20;;;25.90;18.20;;;;;;10390409;28;20279;-78
2021/06/13 13:56:12;;;;;;;1.47;1.23;;;26.00;18.90;;;;;;10389624;28;20710;-78
2021/06/13 14:01:18;;;;;;;1.33;1.23;;;26.20;18.50;;;;;;10391732;28;20241;-79
2021/06/13 14:06:22;;;;;;;1.30;1.30;;;26.30;17.50;;;;;;10394422;28;20224;-78
2021/06/13 14:11:25;;;;;;;2.27;1.50;;;26.30;18.40;;;;;;10391384;28;20268;-79
2021/06/13 14:16:30;;;;;;;1.40;1.30;;;26.40;18.60;;;;;;10381017;28;20241;-78
2021/06/13 14:21:34;;;;;;;2.00;1.30;;;26.40;17.80;;;;;;10401704;28;20237;-79
2021/06/13 14:26:37;;;;;;;1.40;1.30;;;26.50;18.20;;;;;;10393541;28;20254;-79
2021/06/13 14:31:42;;;;;;;1.57;1.47;;;26.40;18.00;;;;;;10394245;28;20244;-78
2021/06/13 14:36:45;;;;;;;2.23;1.70;;;26.40;18.70;;;;;;10391015;28;20226;-78
2021/06/13 14:41:49;;;;;;;1.60;1.50;;;26.40;18.30;;;;;;10390211;28;20238;-79
2021/06/13 14:46:53;;;;;;;2.50;1.63;;;26.40;18.60;;;;;;10381599;28;20229;-79
2021/06/13 14:51:56;;;;;;;1.97;1.67;;;26.50;18.10;;;;;;10393581;28;20241;-79
2021/06/13 14:57:00;;;;;;;2.27;1.70;;;26.50;18.40;;;;;;10389739;28;20229;-79
2021/06/13 15:02:05;;;;;;;1.60;1.50;;;26.40;18.20;;;;;;10388800;28;20223;-78
2021/06/13 15:07:08;;;;;;;2.37;1.70;;;26.40;18.00;;;;;;10385241;28;20225;-79
2021/06/13 15:12:11;;;;;;;1.50;1.40;;;26.40;18.30;;;;;;10387316;28;20240;-78
2021/06/13 15:17:16;;;;;;;2.07;1.87;;;26.40;18.30;;;;;;10388232;28;20238;-81
2021/06/13 15:22:21;;;;;;;3.33;1.90;;;26.50;17.90;;;;;;10392864;28;20375;-78
2021/06/13 15:27:24;;;;;;;1.97;1.60;;;26.50;18.20;;;;;;10400155;28;20702;-78
2021/06/13 15:32:31;;;;;;;2.60;2.40;;;26.60;18.10;;;;;;10385717;28;20241;-79
2021/06/13 15:37:34;;;;;;;3.83;2.97;;;26.70;18.00;;;;;;10385370;28;20241;-78
2021/06/13 15:42:37;;;;;;;2.63;1.97;;;26.70;18.20;;;;;;10405173;28;20673;-76
2021/06/13 15:47:42;;;;;;;2.37;1.53;;;26.80;18.00;;;;;;10392588;28;20233;-79
2021/06/13 15:52:46;;;;;;;3.40;1.43;;;26.80;17.60;;;;;;10399695;28;20256;-82
2021/06/13 15:57:49;;;;;;;3.73;1.43;;;26.80;17.50;;;;;;10393494;28;20241;-82
2021/06/13 16:02:53;;;;;;;2.00;1.40;;;26.70;17.60;;;;;;10394402;28;20595;-78
2021/06/13 16:07:58;;;;;;;1.50;1.40;;;26.70;17.20;;;;;;10392969;28;20730;-76
2021/06/13 16:13:01;;;;;;;1.60;1.50;;;26.70;17.20;;;;;;10386066;28;20734;-75
2021/06/13 16:18:07;;;;;;;1.77;1.40;;;26.80;17.20;;;;;;10387057;28;20275;-75
2021/06/13 16:23:10;;;;;;;1.70;1.40;;;26.90;16.20;;;;;;10384238;28;20221;-77
2021/06/13 16:28:13;;;;;;;4.17;1.50;;;26.90;16.70;;;;;;10389846;28;20229;-78
2021/06/13 16:33:21;;;;;;;1.40;1.30;;;26.90;16.50;;;;;;10386593;28;20855;-77
2021/06/13 16:38:24;;;;;;;1.87;1.57;;;26.90;15.90;;;;;;10391606;28;20248;-78
2021/06/13 16:43:27;;;;;;;1.80;1.17;;;27.00;16.10;;;;;;10396102;28;20237;-82
2021/06/13 16:48:32;;;;;;;1.80;1.30;;;27.00;16.00;;;;;;10396207;28;20313;-82
2021/06/13 16:53:36;;;;;;;1.67;1.50;;;27.00;15.80;;;;;;10387927;28;20238;-78
2021/06/13 16:58:40;;;;;;;2.37;1.70;;;27.00;16.60;;;;;;10390777;28;116727;-78
2021/06/13 17:03:45;;;;;;;2.20;1.70;;;26.90;16.00;;;;;;10397560;28;20234;-77
2021/06/13 17:08:49;;;;;;;1.83;1.60;;;26.90;15.50;;;;;;10394939;28;20230;-82
2021/06/13 17:13:52;;;;;;;1.50;1.33;;;26.90;15.60;;;;;;10386808;28;20233;-75
2021/06/13 17:18:56;;;;;;;1.40;1.30;;;26.80;15.90;;;;;;10393268;28;20229;-77
2021/06/13 17:24:05;;;;;;;1.47;1.30;;;26.80;15.50;;;;;;10404873;28;20236;-82
2021/06/13 17:29:08;;;;;;;1.60;1.50;;;26.90;16.20;;;;;;10402961;28;20224;-79
2021/06/13 17:34:14;;;;;;;1.37;1.20;;;26.90;15.80;;;;;;10405328;28;20225;-79
2021/06/13 17:39:18;;;;;;;1.60;1.50;;;27.00;15.60;;;;;;10405128;28;20229;-80
2021/06/13 17:44:21;;;;;;;1.53;1.43;;;27.00;15.90;;;;;;10394763;28;20230;-81
2021/06/13 17:49:26;;;;;;;1.93;1.40;;;27.00;15.60;;;;;;10394094;28;20229;-80
2021/06/13 17:54:30;;;;;;;3.60;1.50;;;26.90;15.20;;;;;;10385185;28;20248;-77
2021/06/13 17:59:34;;;;;;;1.47;1.37;;;26.90;15.30;;;;;;10390603;28;20732;-80
2021/06/13 18:04:38;;;;;;;1.50;1.30;;;26.80;15.80;;;;;;10416151;28;20264;-76
2021/06/13 18:09:42;;;;;;;1.50;1.40;;;26.70;15.40;;;;;;10385574;28;20237;-78
2021/06/13 18:14:45;;;;;;;1.60;1.50;;;26.70;15.50;;;;;;10396569;28;20244;-79
2021/06/13 18:19:50;;;;;;;1.67;1.30;;;26.60;15.60;;;;;;10385917;28;20226;-75
2021/06/13 18:24:53;;;;;;;1.40;1.30;;;26.50;15.50;;;;;;10385282;28;20237;-75
2021/06/13 18:29:56;;;;;;;3.00;1.40;;;26.50;15.90;;;;;;10381960;28;20644;-76
2021/06/13 18:35:01;;;;;;;2.00;1.43;;;26.40;15.90;;;;;;10389304;28;20237;-75
2021/06/13 18:40:06;;;;;;;1.70;1.60;;;26.30;15.90;;;;;;10386626;28;20234;-76
2021/06/13 18:45:10;;;;;;;2.90;1.50;;;26.30;16.10;;;;;;10384041;28;20317;-75
2021/06/13 18:50:18;;;;;;;1.87;1.60;;;26.20;16.40;;;;;;10386788;28;20646;-76
2021/06/13 18:55:21;;;;;;;2.93;1.70;;;26.10;16.40;;;;;;10383225;28;20276;-76
2021/06/13 19:00:25;;;;;;;1.67;1.47;;;26.00;16.50;;;;;;10367095;28;20229;-76
2021/06/13 19:05:30;;;;;;;1.50;1.40;;;25.90;16.70;;;;;;10389051;28;20229;-79
2021/06/13 19:10:33;;;;;;;1.70;1.60;;;25.80;16.80;;;;;;10381275;28;20776;-79
2021/06/13 19:15:37;;;;;;;3.33;1.63;;;25.70;16.90;;;;;;10410058;28;20708;-79
2021/06/13 19:20:42;;;;;;;2.23;1.70;;;25.60;17.00;;;;;;10410544;28;20226;-79
2021/06/13 19:25:45;;;;;;;2.83;1.70;;;25.40;17.20;;;;;;10394449;28;20236;-79
2021/06/13 19:30:50;;;;;;;1.50;1.40;;;25.30;17.30;;;;;;10416886;28;20313;-78
2021/06/13 19:35:55;;;;;;;1.90;1.50;;;25.20;17.50;;;;;;10396196;28;20312;-79
2021/06/13 19:40:59;;;;;;;2.40;1.80;;;25.10;17.60;;;;;;10400469;28;20313;-79
2021/06/13 19:46:02;;;;;;;2.47;1.90;;;25.00;17.80;;;;;;10400261;28;20260;-78
2021/06/13 19:51:07;;;;;;;1.83;1.67;;;24.90;18.10;;;;;;10398662;28;20237;-78
2021/06/13 19:56:11;;;;;;;2.60;1.90;;;24.80;18.40;;;;;;10395731;28;20272;-78
2021/06/13 20:01:17;;;;;;;1.83;1.60;;;24.70;18.40;;;;;;10394005;28;21085;-76
2021/06/13 20:06:21;;;;;;;3.27;1.70;;;24.50;18.20;;;;;;10387979;28;20241;-75
2021/06/13 20:11:24;;;;;;;2.73;1.70;;;24.40;18.70;;;;;;10383430;28;20230;-76
2021/06/13 20:16:28;;;;;;;1.63;1.53;;;24.30;18.60;;;;;;10391484;28;20241;-77
2021/06/13 20:21:33;;;;;;;2.20;1.77;;;24.10;18.80;;;;;;10391361;28;20247;-76
2021/06/13 20:26:36;;;;;;;2.07;1.93;;;24.00;19.20;;;;;;10381935;28;20240;-76
2021/06/13 20:31:40;;;;;;;2.07;1.50;;;23.90;19.30;;;;;;10381414;28;20237;-75
2021/06/13 20:36:46;;;;;;;1.97;1.77;;;23.80;19.30;;;;;;10374841;28;20237;-76
2021/06/13 20:41:50;;;;;;;2.33;1.80;;;23.70;19.70;;;;;;10375536;28;20753;-76
2021/06/13 20:46:53;;;;;;;3.43;1.80;;;23.60;19.50;;;;;;10381555;28;20230;-79
2021/06/13 20:51:58;;;;;;;1.80;1.70;;;23.50;19.60;;;;;;10385574;28;20800;-76
2021/06/13 20:57:01;;;;;;;2.43;2.13;;;23.40;19.90;;;;;;10372697;28;20761;-76
2021/06/13 21:02:05;;;;;;;2.40;1.80;;;23.20;19.90;;;;;;10384661;28;20234;-76
2021/06/13 21:07:11;;;;;;;4.00;2.10;;;23.10;20.10;;;;;;10382240;28;20229;-78
2021/06/13 21:12:14;;;;;;;1.83;1.70;;;22.90;20.30;;;;;;10395793;28;20237;-78
2021/06/13 21:17:18;;;;;;;1.70;1.60;;;22.70;20.20;;;;;;10395551;28;20233;-78
2021/06/13 21:22:23;;;;;;;3.07;2.00;;;22.40;20.60;;;;;;10389473;28;20288;-78
2021/06/13 21:27:26;;;;;;;2.10;1.60;;;22.20;20.90;;;;;;10394327;28;20634;-78
2021/06/13 21:32:29;;;;;;;1.90;1.80;;;22.10;20.70;;;;;;10394336;28;20225;-79
2021/06/13 21:37:34;;;;;;;1.90;1.40;;;21.90;20.90;;;;;;10396342;28;20229;-79
2021/06/13 21:42:37;;;;;;;1.60;1.50;;;21.80;21.40;;;;;;10378259;28;20241;-76
2021/06/13 21:47:42;;;;;;;1.77;1.60;;;21.70;21.30;;;;;;10378598;28;20233;-76
2021/06/13 21:52:47;;;;;;;2.90;1.80;;;21.60;21.60;;;;;;10379233;28;20241;-76
2021/06/13 21:57:50;;;;;;;4.40;2.30;;;21.50;21.70;;;;;;10377234;28;20225;-76
2021/06/13 22:02:53;;;;;;;2.27;1.90;;;21.30;21.50;;;;;;10374203;28;20737;-76
2021/06/13 22:07:58;;;;;;;2.60;1.90;;;20.90;21.50;;;;;;10378886;28;20724;-76
2021/06/13 22:13:03;;;;;;;2.27;1.90;;;20.70;22.20;;;;;;10430197;23;20232;-74
2021/06/13 22:18:07;;;;;;;2.00;1.73;;;20.50;22.20;;;;;;10459697;28;20236;-73
2021/06/13 22:23:11;;;;;;;2.20;1.63;;;20.40;22.40;;;;;;10437035;28;20232;-74
2021/06/13 22:28:15;;;;;;;2.57;1.77;;;20.30;22.60;;;;;;10439829;28;20233;-73
2021/06/13 22:33:18;;;;;;;2.13;1.93;;;20.30;22.60;;;;;;10439152;28;20233;-74
2021/06/13 22:38:23;;;;;;;2.27;1.80;;;20.30;22.50;;;;;;10426416;23;20244;-76
2021/06/13 22:43:28;;;;;;;2.97;2.40;;;20.30;23.20;;;;;;10415963;28;20744;-76
2021/06/13 22:48:32;;;;;;;2.50;2.20;;;20.20;23.00;;;;;;10422967;28;21053;-76
2021/06/13 22:53:38;;;;;;;3.40;1.60;;;20.10;22.90;;;;;;10422097;28;20243;-76
2021/06/13 22:58:41;;;;;;;2.67;2.10;;;20.10;23.40;;;;;;10421864;28;20232;-76
2021/06/13 23:03:45;;;;;;;2.10;1.90;;;20.10;23.10;;;;;;10419665;28;20255;-76
2021/06/13 23:08:49;;;;;;;2.13;1.97;;;20.00;23.20;;;;;;10422623;28;20655;-76
2021/06/13 23:13:52;;;;;;;2.70;1.97;;;20.00;23.50;;;;;;10419254;28;20233;-76
2021/06/13 23:18:55;;;;;;;2.20;1.77;;;20.00;23.30;;;;;;10425230;28;20234;-76
2021/06/13 23:24:00;;;;;;;2.10;1.80;;;19.90;23.20;;;;;;10421569;28;20234;-75
2021/06/13 23:29:04;;;;;;;3.10;1.60;;;19.70;23.80;;;;;;10419923;28;20220;-76
2021/06/13 23:34:07;;;;;;;2.27;1.80;;;19.50;23.50;;;;;;10426547;28;20236;-76
2021/06/13 23:39:12;;;;;;;1.93;1.77;;;19.40;23.70;;;;;;10418733;28;20232;-76
2021/06/13 23:44:15;;;;;;;2.00;1.67;;;19.40;24.20;;;;;;10422852;28;20245;-76
2021/06/13 23:49:18;;;;;;;1.87;1.77;;;19.30;23.90;;;;;;10422390;28;20645;-76
2021/06/13 23:54:23;;;;;;;2.93;1.70;;;19.30;24.10;;;;;;10423429;28;20291;-76
2021/06/13 23:59:26;;;;;;;1.67;1.57;;;19.20;24.50;;;;;;10429621;28;20239;-76
